createdAt,value
2019-03-19T00:00:03.072Z,16.90
2019-03-19T00:01:03.049Z,20.20
2019-03-19T00:02:03.026Z,14.30
2019-03-19T00:03:03.003Z,18.40
2019-03-19T00:04:02.980Z,16.00
2019-03-19T00:05:02.959Z,12.10
2019-03-19T00:06:02.942Z,17.40
2019-03-19T00:07:02.917Z,17.00
2019-03-19T00:08:02.906Z,16.00
2019-03-19T00:09:02.874Z,17.90
2019-03-19T00:10:02.851Z,15.20
2019-03-19T00:11:02.826Z,24.10
2019-03-19T00:12:02.809Z,15.50
2019-03-19T00:13:02.783Z,17.60
2019-03-19T00:14:02.764Z,25.80
2019-03-19T00:15:02.748Z,20.70
2019-03-19T00:16:02.718Z,17.30
2019-03-19T00:17:02.712Z,17.60
2019-03-19T00:18:02.673Z,17.60
2019-03-19T00:19:02.659Z,17.70
2019-03-19T00:20:02.630Z,19.70
2019-03-19T00:21:02.611Z,20.60
2019-03-19T00:22:02.592Z,15.50
2019-03-19T00:23:02.572Z,18.50
2019-03-19T00:24:02.542Z,18.30
2019-03-19T00:25:02.519Z,16.70
2019-03-19T00:26:02.494Z,19.40
2019-03-19T00:27:02.487Z,24.40
2019-03-19T00:28:02.451Z,20.80
2019-03-19T00:29:02.431Z,19.30
2019-03-19T00:30:02.411Z,22.00
2019-03-19T00:31:02.394Z,21.70
2019-03-19T00:32:02.362Z,14.40
2019-03-19T00:33:02.346Z,14.00
2019-03-19T00:34:02.321Z,20.30
2019-03-19T00:35:02.299Z,22.10
2019-03-19T00:36:02.277Z,17.20
2019-03-19T00:37:02.252Z,21.10
2019-03-19T00:38:02.232Z,20.70
2019-03-19T00:39:02.210Z,36.30
2019-03-19T00:40:02.193Z,26.10
2019-03-19T00:41:02.164Z,18.60
2019-03-19T00:42:02.143Z,17.80
2019-03-19T00:43:02.126Z,21.90
2019-03-19T00:44:02.096Z,19.60
2019-03-19T00:45:02.076Z,17.60
2019-03-19T00:46:02.051Z,20.90
2019-03-19T00:47:02.032Z,16.60
2019-03-19T00:48:02.007Z,15.40
2019-03-19T00:49:01.991Z,16.20
2019-03-19T00:50:01.969Z,25.60
2019-03-19T00:51:01.949Z,20.60
2019-03-19T00:52:01.918Z,17.20
2019-03-19T00:53:01.896Z,15.10
2019-03-19T00:54:01.875Z,18.60
2019-03-19T00:55:01.863Z,19.90
2019-03-19T00:56:01.829Z,21.20
2019-03-19T00:57:01.806Z,22.80
2019-03-19T00:58:01.795Z,15.90
2019-03-19T00:59:01.763Z,20.90
2019-03-19T01:00:01.743Z,20.80
2019-03-19T01:01:01.720Z,36.30
2019-03-19T01:02:01.698Z,25.70
2019-03-19T01:03:01.677Z,21.10
2019-03-19T01:04:01.654Z,25.00
2019-03-19T01:05:01.633Z,24.80
2019-03-19T01:06:01.607Z,24.70
2019-03-19T01:07:01.587Z,19.60
2019-03-19T01:08:01.564Z,23.40
2019-03-19T01:09:01.544Z,15.50
2019-03-19T01:10:01.521Z,23.60
2019-03-19T01:11:01.497Z,23.90
2019-03-19T01:12:01.473Z,17.40
2019-03-19T01:13:01.457Z,21.50
2019-03-19T01:14:01.448Z,20.20
2019-03-19T01:15:01.413Z,21.40
2019-03-19T01:16:01.387Z,19.90
2019-03-19T01:17:01.370Z,18.00
2019-03-19T01:18:01.344Z,18.10
2019-03-19T01:19:01.315Z,16.80
2019-03-19T01:20:01.299Z,17.40
2019-03-19T01:21:01.275Z,18.80
2019-03-19T01:22:01.268Z,22.60
2019-03-19T01:23:01.229Z,18.50
2019-03-19T01:24:01.210Z,14.50
2019-03-19T01:25:01.183Z,12.20
2019-03-19T01:26:01.162Z,15.50
2019-03-19T01:27:01.143Z,18.50
2019-03-19T01:28:01.115Z,14.40
2019-03-19T01:29:01.100Z,17.00
2019-03-19T01:30:01.072Z,17.10
2019-03-19T01:31:01.048Z,15.10
2019-03-19T01:32:01.029Z,17.80
2019-03-19T01:33:01.007Z,15.10
2019-03-19T01:34:00.982Z,20.50
2019-03-19T01:35:00.960Z,21.20
2019-03-19T01:36:00.938Z,18.40
2019-03-19T01:37:00.937Z,19.70
2019-03-19T01:38:00.895Z,16.60
2019-03-19T01:39:00.875Z,17.60
2019-03-19T01:40:00.849Z,18.40
2019-03-19T01:41:00.826Z,19.20
2019-03-19T01:42:00.810Z,12.70
2019-03-19T01:43:00.782Z,18.20
2019-03-19T01:44:00.759Z,24.60
2019-03-19T01:45:00.742Z,20.20
2019-03-19T01:46:00.715Z,16.70
2019-03-19T01:47:00.691Z,16.80
2019-03-19T01:48:00.676Z,15.50
2019-03-19T01:49:00.665Z,18.90
2019-03-19T01:50:00.625Z,23.00
2019-03-19T01:51:00.605Z,18.60
2019-03-19T01:52:00.588Z,15.70
2019-03-19T01:53:00.562Z,25.50
2019-03-19T01:54:00.546Z,31.10
2019-03-19T01:55:00.521Z,42.40
2019-03-19T01:56:05.050Z,23.60
2019-03-19T01:57:00.471Z,19.30
2019-03-19T01:58:00.448Z,19.90
2019-03-19T01:59:00.423Z,16.50
2019-03-19T02:00:00.404Z,16.50
2019-03-19T02:01:00.387Z,22.30
2019-03-19T02:02:00.362Z,20.40
2019-03-19T02:03:00.339Z,20.30
2019-03-19T02:04:00.317Z,16.10
2019-03-19T02:05:00.510Z,21.60
2019-03-19T02:06:00.269Z,19.70
2019-03-19T02:07:00.246Z,20.90
2019-03-19T02:08:00.225Z,19.90
2019-03-19T02:09:00.203Z,24.40
2019-03-19T02:10:00.321Z,15.70
2019-03-19T02:11:00.157Z,17.30
2019-03-19T02:12:00.131Z,18.00
2019-03-19T02:13:00.112Z,24.20
2019-03-19T02:14:00.089Z,27.90
2019-03-19T02:15:00.065Z,32.30
2019-03-19T02:16:00.044Z,36.80
2019-03-19T02:17:00.025Z,30.50
2019-03-19T02:17:59.999Z,17.50
2019-03-19T02:18:59.975Z,21.10
2019-03-19T02:19:59.953Z,18.50
2019-03-19T02:20:59.931Z,22.80
2019-03-19T02:21:59.910Z,31.70
2019-03-19T02:22:59.909Z,27.30
2019-03-19T02:23:59.864Z,35.90
2019-03-19T02:24:59.841Z,29.90
2019-03-19T02:25:59.820Z,24.70
2019-03-19T02:26:59.798Z,28.00
2019-03-19T02:27:59.774Z,29.20
2019-03-19T02:28:59.752Z,19.00
2019-03-19T02:29:59.728Z,21.30
2019-03-19T02:30:59.715Z,21.30
2019-03-19T02:31:59.686Z,26.50
2019-03-19T02:32:59.666Z,24.70
2019-03-19T02:33:59.676Z,33.10
2019-03-19T02:34:59.617Z,25.80
2019-03-19T02:35:59.596Z,22.80
2019-03-19T02:36:59.574Z,31.30
2019-03-19T02:37:59.564Z,24.00
2019-03-19T02:38:59.552Z,17.80
2019-03-19T02:39:59.503Z,21.40
2019-03-19T02:40:59.486Z,36.30
2019-03-19T02:41:59.517Z,35.70
2019-03-19T02:42:59.435Z,26.10
2019-03-19T02:43:59.418Z,24.00
2019-03-19T02:44:59.397Z,24.60
2019-03-19T02:45:59.371Z,17.80
2019-03-19T02:46:59.350Z,23.10
2019-03-19T02:47:59.332Z,23.30
2019-03-19T02:48:59.304Z,26.70
2019-03-19T02:49:59.282Z,20.90
2019-03-19T02:50:59.265Z,18.00
2019-03-19T02:51:59.239Z,26.60
2019-03-19T02:52:59.213Z,26.10
2019-03-19T02:53:59.193Z,21.40
2019-03-19T02:54:59.167Z,20.00
2019-03-19T02:55:59.145Z,17.00
2019-03-19T02:56:59.121Z,19.20
2019-03-19T02:57:59.102Z,17.90
2019-03-19T02:58:59.077Z,19.00
2019-03-19T02:59:59.057Z,18.40
2019-03-19T03:00:59.039Z,17.80
2019-03-19T03:01:59.022Z,21.40
2019-03-19T03:02:58.988Z,18.70
2019-03-19T03:03:58.964Z,14.90
2019-03-19T03:04:58.944Z,16.50
2019-03-19T03:05:58.947Z,19.40
2019-03-19T03:06:58.902Z,16.90
2019-03-19T03:07:58.885Z,20.80
2019-03-19T03:08:58.851Z,14.00
2019-03-19T03:09:58.847Z,17.70
2019-03-19T03:10:58.808Z,19.60
2019-03-19T03:11:58.784Z,17.20
2019-03-19T03:12:58.845Z,16.50
2019-03-19T03:13:58.741Z,21.10
2019-03-19T03:14:58.716Z,16.30
2019-03-19T03:15:58.693Z,14.60
2019-03-19T03:16:58.681Z,19.70
2019-03-19T03:17:58.654Z,18.80
2019-03-19T03:18:58.626Z,17.50
2019-03-19T03:19:58.606Z,21.20
2019-03-19T03:20:58.579Z,22.00
2019-03-19T03:21:58.560Z,24.50
2019-03-19T03:22:58.535Z,19.20
2019-03-19T03:23:58.522Z,20.10
2019-03-19T03:24:58.488Z,24.10
2019-03-19T03:25:58.471Z,19.40
2019-03-19T03:26:58.450Z,23.40
2019-03-19T03:27:58.421Z,26.10
2019-03-19T03:28:58.404Z,17.50
2019-03-19T03:29:58.378Z,21.70
2019-03-19T03:30:58.365Z,19.10
2019-03-19T03:31:58.334Z,18.70
2019-03-19T03:32:58.331Z,19.30
2019-03-19T03:33:58.299Z,17.70
2019-03-19T03:34:58.272Z,17.30
2019-03-19T03:35:58.240Z,20.00
2019-03-19T03:36:58.223Z,18.30
2019-03-19T03:37:58.194Z,19.50
2019-03-19T03:38:58.180Z,19.30
2019-03-19T03:39:58.160Z,18.00
2019-03-19T03:40:58.127Z,18.20
2019-03-19T03:41:58.108Z,18.50
2019-03-19T03:42:58.088Z,15.70
2019-03-19T03:43:58.073Z,16.40
2019-03-19T03:44:58.036Z,21.20
2019-03-19T03:45:58.034Z,24.40
2019-03-19T03:46:57.996Z,17.60
2019-03-19T03:47:57.972Z,16.70
2019-03-19T03:48:57.953Z,21.30
2019-03-19T03:49:57.930Z,24.00
2019-03-19T03:50:57.915Z,42.70
2019-03-19T03:51:57.878Z,37.30
2019-03-19T03:52:57.862Z,24.50
2019-03-19T03:53:57.844Z,26.60
2019-03-19T03:54:57.814Z,25.20
2019-03-19T03:55:57.788Z,19.80
2019-03-19T03:57:02.235Z,18.20
2019-03-19T03:57:57.744Z,17.80
2019-03-19T03:59:01.102Z,18.90
2019-03-19T03:59:57.694Z,22.70
2019-03-19T04:00:57.674Z,14.70
2019-03-19T04:01:57.650Z,19.00
2019-03-19T04:02:57.624Z,21.30
2019-03-19T04:03:57.603Z,26.40
2019-03-19T04:04:57.580Z,20.50
2019-03-19T04:05:57.680Z,19.20
2019-03-19T04:06:57.539Z,23.40
2019-03-19T04:07:57.519Z,18.40
2019-03-19T04:08:57.491Z,19.50
2019-03-19T04:09:57.472Z,22.40
2019-03-19T04:10:57.445Z,24.60
2019-03-19T04:11:57.427Z,15.80
2019-03-19T04:12:57.398Z,32.40
2019-03-19T04:13:57.379Z,19.90
2019-03-19T04:14:57.357Z,23.90
2019-03-19T04:15:57.330Z,19.60
2019-03-19T04:16:57.307Z,15.80
2019-03-19T04:17:57.283Z,22.60
2019-03-19T04:18:57.264Z,18.60
2019-03-19T04:19:57.248Z,16.20
2019-03-19T04:20:57.212Z,20.00
2019-03-19T04:21:57.191Z,18.10
2019-03-19T04:22:57.165Z,21.90
2019-03-19T04:23:57.145Z,19.90
2019-03-19T04:24:57.125Z,15.90
2019-03-19T04:25:57.097Z,13.80
2019-03-19T04:26:57.085Z,16.70
2019-03-19T04:27:57.056Z,22.70
2019-03-19T04:28:57.034Z,21.40
2019-03-19T04:29:57.009Z,19.10
2019-03-19T04:30:56.985Z,21.90
2019-03-19T04:31:56.970Z,26.60
2019-03-19T04:32:56.937Z,24.60
2019-03-19T04:33:56.913Z,15.90
2019-03-19T04:34:56.890Z,15.50
2019-03-19T04:35:56.870Z,18.60
2019-03-19T04:36:56.848Z,20.50
2019-03-19T04:37:56.822Z,16.80
2019-03-19T04:38:56.796Z,18.20
2019-03-19T04:39:56.794Z,16.10
2019-03-19T04:40:56.751Z,20.10
2019-03-19T04:41:56.732Z,18.40
2019-03-19T04:42:56.707Z,21.60
2019-03-19T04:43:56.694Z,25.60
2019-03-19T04:44:56.665Z,30.50
2019-03-19T04:45:56.638Z,24.10
2019-03-19T04:46:56.613Z,15.60
2019-03-19T04:47:56.590Z,18.40
2019-03-19T04:48:56.567Z,16.40
2019-03-19T04:49:56.548Z,20.50
2019-03-19T04:50:56.523Z,19.10
2019-03-19T04:51:56.499Z,19.10
2019-03-19T04:52:56.475Z,17.80
2019-03-19T04:53:56.451Z,15.00
2019-03-19T04:54:56.433Z,24.10
2019-03-19T04:55:56.410Z,20.80
2019-03-19T04:56:56.382Z,18.10
2019-03-19T04:57:56.359Z,16.80
2019-03-19T04:58:56.333Z,21.10
2019-03-19T04:59:56.314Z,21.80
2019-03-19T05:00:56.290Z,18.00
2019-03-19T05:01:56.263Z,17.40
2019-03-19T05:02:56.243Z,23.00
2019-03-19T05:03:56.214Z,15.20
2019-03-19T05:04:56.198Z,20.70
2019-03-19T05:05:56.173Z,18.90
2019-03-19T05:06:56.149Z,14.30
2019-03-19T05:07:56.136Z,17.30
2019-03-19T05:08:56.102Z,22.50
2019-03-19T05:09:56.077Z,22.10
2019-03-19T05:10:56.055Z,23.40
2019-03-19T05:11:56.031Z,22.20
2019-03-19T05:12:56.007Z,17.60
2019-03-19T05:13:55.989Z,16.80
2019-03-19T05:14:55.963Z,19.40
2019-03-19T05:15:55.936Z,16.70
2019-03-19T05:16:55.918Z,18.70
2019-03-19T05:17:55.887Z,21.30
2019-03-19T05:18:55.880Z,19.40
2019-03-19T05:19:55.845Z,22.80
2019-03-19T05:20:55.828Z,25.80
2019-03-19T05:21:55.795Z,21.70
2019-03-19T05:22:55.771Z,18.50
2019-03-19T05:23:55.749Z,19.40
2019-03-19T05:24:55.728Z,22.20
2019-03-19T05:25:55.705Z,15.90
2019-03-19T05:26:55.679Z,17.60
2019-03-19T05:27:55.659Z,17.90
2019-03-19T05:28:55.641Z,16.60
2019-03-19T05:29:55.609Z,14.70
2019-03-19T05:30:55.588Z,23.80
2019-03-19T05:31:55.562Z,19.30
2019-03-19T05:32:55.544Z,25.50
2019-03-19T05:33:55.517Z,18.80
2019-03-19T05:34:55.493Z,18.70
2019-03-19T05:35:55.472Z,22.70
2019-03-19T05:36:55.450Z,20.70
2019-03-19T05:37:55.426Z,16.10
2019-03-19T05:38:55.399Z,17.10
2019-03-19T05:39:55.379Z,21.70
2019-03-19T05:40:55.349Z,19.00
2019-03-19T05:41:55.330Z,24.80
2019-03-19T05:42:55.303Z,27.60
2019-03-19T05:43:55.284Z,20.00
2019-03-19T05:44:55.259Z,20.60
2019-03-19T05:45:55.233Z,18.90
2019-03-19T05:46:55.214Z,21.30
2019-03-19T05:47:55.187Z,26.00
2019-03-19T05:48:55.165Z,16.60
2019-03-19T05:49:55.145Z,20.40
2019-03-19T05:50:55.122Z,20.90
2019-03-19T05:51:55.100Z,17.30
2019-03-19T05:52:55.071Z,20.30
2019-03-19T05:53:55.048Z,24.80
2019-03-19T05:54:55.025Z,19.40
2019-03-19T05:55:55.003Z,20.30
2019-03-19T05:56:54.978Z,19.40
2019-03-19T05:57:54.954Z,22.40
2019-03-19T05:58:54.931Z,26.50
2019-03-19T05:59:54.911Z,22.70
2019-03-19T06:00:54.885Z,18.00
2019-03-19T06:01:54.861Z,21.40
2019-03-19T06:02:54.836Z,19.50
2019-03-19T06:03:54.821Z,19.80
2019-03-19T06:04:54.801Z,23.80
2019-03-19T06:05:54.769Z,21.20
2019-03-19T06:06:54.749Z,28.30
2019-03-19T06:07:54.728Z,21.00
2019-03-19T06:08:54.701Z,21.50
2019-03-19T06:09:54.677Z,21.30
2019-03-19T06:10:54.656Z,20.20
2019-03-19T06:11:54.654Z,20.80
2019-03-19T06:12:54.608Z,20.40
2019-03-19T06:13:54.584Z,22.70
2019-03-19T06:14:54.561Z,21.90
2019-03-19T06:15:54.540Z,23.10
2019-03-19T06:16:54.522Z,20.70
2019-03-19T06:17:54.500Z,15.60
2019-03-19T06:18:54.469Z,24.60
2019-03-19T06:19:54.445Z,21.60
2019-03-19T06:20:54.421Z,24.50
2019-03-19T06:21:56.649Z,17.10
2019-03-19T06:22:54.376Z,21.00
2019-03-19T06:23:54.357Z,18.20
2019-03-19T06:24:54.331Z,21.30
2019-03-19T06:25:54.318Z,17.20
2019-03-19T06:26:54.289Z,17.40
2019-03-19T06:28:00.394Z,25.50
2019-03-19T06:28:54.241Z,21.20
2019-03-19T06:29:54.220Z,20.60
2019-03-19T06:30:54.194Z,20.40
2019-03-19T06:31:54.176Z,22.20
2019-03-19T06:32:54.145Z,23.70
2019-03-19T06:33:54.123Z,23.30
2019-03-19T06:34:54.099Z,24.00
2019-03-19T06:35:54.078Z,23.70
2019-03-19T06:36:54.080Z,20.00
2019-03-19T06:37:54.036Z,20.50
2019-03-19T06:38:54.007Z,21.80
2019-03-19T06:39:53.987Z,19.20
2019-03-19T06:40:53.966Z,21.40
2019-03-19T06:41:53.950Z,20.40
2019-03-19T06:42:53.918Z,21.00
2019-03-19T06:43:53.896Z,20.20
2019-03-19T06:44:53.878Z,24.90
2019-03-19T06:45:53.857Z,24.70
2019-03-19T06:46:53.829Z,23.80
2019-03-19T06:47:53.813Z,22.00
2019-03-19T06:48:53.785Z,20.60
2019-03-19T06:49:53.771Z,18.70
2019-03-19T06:50:53.740Z,18.10
2019-03-19T06:51:53.722Z,20.10
2019-03-19T06:52:53.697Z,17.50
2019-03-19T06:53:53.694Z,17.40
2019-03-19T06:54:53.660Z,19.00
2019-03-19T06:55:53.632Z,15.30
2019-03-19T06:56:53.610Z,20.90
2019-03-19T06:57:53.591Z,24.10
2019-03-19T06:58:53.568Z,19.60
2019-03-19T06:59:53.550Z,15.50
2019-03-19T07:00:53.528Z,12.50
2019-03-19T07:01:53.507Z,18.30
2019-03-19T07:02:53.490Z,17.70
2019-03-19T07:03:53.471Z,16.40
2019-03-19T07:04:53.449Z,16.60
2019-03-19T07:05:53.430Z,14.60
2019-03-19T07:06:53.415Z,15.40
2019-03-19T07:07:53.394Z,10.90
2019-03-19T07:08:53.385Z,13.40
2019-03-19T07:09:53.368Z,15.40
2019-03-19T07:10:53.363Z,14.80
2019-03-19T07:11:53.334Z,13.90
2019-03-19T07:12:53.327Z,15.80
2019-03-19T07:13:53.306Z,15.50
2019-03-19T07:14:53.288Z,17.70
2019-03-19T07:15:53.275Z,15.70
2019-03-19T07:16:53.270Z,16.50
2019-03-19T07:17:53.264Z,17.10
2019-03-19T07:18:53.239Z,17.50
2019-03-19T07:19:53.227Z,16.70
2019-03-19T07:20:53.213Z,16.30
2019-03-19T07:21:53.207Z,16.90
2019-03-19T07:22:53.190Z,12.30
2019-03-19T07:23:53.182Z,18.10
2019-03-19T07:24:53.178Z,14.50
2019-03-19T07:25:53.166Z,15.40
2019-03-19T07:26:53.150Z,16.30
2019-03-19T07:27:53.141Z,15.60
2019-03-19T07:28:53.134Z,13.60
2019-03-19T07:29:53.123Z,13.80
2019-03-19T07:30:53.114Z,17.00
2019-03-19T07:31:53.106Z,12.60
2019-03-19T07:32:53.104Z,13.90
2019-03-19T07:33:53.087Z,13.50
2019-03-19T07:34:53.081Z,12.30
2019-03-19T07:35:53.071Z,17.10
2019-03-19T07:36:53.065Z,14.20
2019-03-19T07:37:53.061Z,14.20
2019-03-19T07:38:53.062Z,13.60
2019-03-19T07:39:53.050Z,11.10
2019-03-19T07:40:53.035Z,14.70
2019-03-19T07:41:53.030Z,15.20
2019-03-19T07:42:53.028Z,12.80
2019-03-19T07:43:53.017Z,11.20
2019-03-19T07:44:53.012Z,15.00
2019-03-19T07:45:53.018Z,13.30
2019-03-19T07:46:53.002Z,13.90
2019-03-19T07:47:53.006Z,13.10
2019-03-19T07:48:52.998Z,14.50
2019-03-19T07:49:52.987Z,14.80
2019-03-19T07:50:52.983Z,12.60
2019-03-19T07:51:53.576Z,18.30
2019-03-19T07:52:52.978Z,15.60
2019-03-19T07:53:52.973Z,14.80
2019-03-19T07:54:52.965Z,16.80
2019-03-19T07:55:53.564Z,13.30
2019-03-19T07:56:52.958Z,14.10
2019-03-19T07:57:52.958Z,18.60
2019-03-19T07:58:52.949Z,12.60
2019-03-19T07:59:52.972Z,15.60
2019-03-19T08:00:52.944Z,10.60
2019-03-19T08:01:52.942Z,15.80
2019-03-19T08:02:52.938Z,14.50
2019-03-19T08:03:52.937Z,16.10
2019-03-19T08:04:52.940Z,17.30
2019-03-19T08:05:52.937Z,11.00
2019-03-19T08:06:52.931Z,12.00
2019-03-19T08:07:52.939Z,13.90
2019-03-19T08:08:52.926Z,14.30
2019-03-19T08:09:52.926Z,14.80
2019-03-19T08:10:52.926Z,13.40
2019-03-19T08:11:52.930Z,13.50
2019-03-19T08:12:52.922Z,13.70
2019-03-19T08:13:52.924Z,12.70
2019-03-19T08:14:52.931Z,11.80
2019-03-19T08:15:52.924Z,13.60
2019-03-19T08:16:53.367Z,12.60
2019-03-19T08:17:52.918Z,11.80
2019-03-19T08:18:52.913Z,12.20
2019-03-19T08:19:52.921Z,11.90
2019-03-19T08:20:52.916Z,14.10
2019-03-19T08:21:52.911Z,18.90
2019-03-19T08:22:52.915Z,15.70
2019-03-19T08:23:52.910Z,12.30
2019-03-19T08:24:52.917Z,13.30
2019-03-19T08:25:52.916Z,11.70
2019-03-19T08:26:52.913Z,12.30
2019-03-19T08:27:52.909Z,12.80
2019-03-19T08:28:55.525Z,11.60
2019-03-19T08:29:52.913Z,11.10
2019-03-19T08:30:52.910Z,12.40
2019-03-19T08:31:52.912Z,10.50
2019-03-19T08:32:52.910Z,10.70
2019-03-19T08:33:52.910Z,11.60
2019-03-19T08:34:52.909Z,15.00
2019-03-19T08:35:52.918Z,11.70
2019-03-19T08:36:52.911Z,11.20
2019-03-19T08:37:52.917Z,13.90
2019-03-19T08:38:52.911Z,14.50
2019-03-19T08:39:52.916Z,13.10
2019-03-19T08:40:52.913Z,12.20
2019-03-19T08:41:52.917Z,10.80
2019-03-19T08:42:52.915Z,11.50
2019-03-19T08:43:52.916Z,13.20
2019-03-19T08:44:52.913Z,9.90
2019-03-19T08:45:52.919Z,10.80
2019-03-19T08:46:52.913Z,10.70
2019-03-19T08:47:52.916Z,10.90
2019-03-19T08:48:52.917Z,16.00
2019-03-19T08:49:52.916Z,12.60
2019-03-19T08:50:52.923Z,13.40
2019-03-19T08:51:52.921Z,13.00
2019-03-19T08:52:55.233Z,12.90
2019-03-19T08:53:52.918Z,14.60
2019-03-19T08:54:52.921Z,11.00
2019-03-19T08:55:52.927Z,11.40
2019-03-19T08:56:52.918Z,12.00
2019-03-19T08:57:52.923Z,11.50
2019-03-19T08:58:52.925Z,9.10
2019-03-19T08:59:52.922Z,10.00
2019-03-19T09:00:52.919Z,13.40
2019-03-19T09:01:52.921Z,13.30
2019-03-19T09:02:52.978Z,12.00
2019-03-19T09:03:52.924Z,12.40
2019-03-19T09:04:52.939Z,12.90
2019-03-19T09:05:52.922Z,10.90
2019-03-19T09:06:52.925Z,12.20
2019-03-19T09:07:52.918Z,11.20
2019-03-19T09:08:52.921Z,12.00
2019-03-19T09:09:52.920Z,11.10
2019-03-19T09:10:52.922Z,10.20
2019-03-19T09:11:52.917Z,10.70
2019-03-19T09:12:52.916Z,9.20
2019-03-19T09:13:52.908Z,11.30
2019-03-19T09:14:52.901Z,12.70
2019-03-19T09:15:52.911Z,12.40
2019-03-19T09:16:52.903Z,11.90
2019-03-19T09:17:52.899Z,14.10
2019-03-19T09:18:52.909Z,12.20
2019-03-19T09:19:52.891Z,13.80
2019-03-19T09:20:54.078Z,11.50
2019-03-19T09:21:52.882Z,12.00
2019-03-19T09:22:52.881Z,9.40
2019-03-19T09:23:52.875Z,10.10
2019-03-19T09:24:52.879Z,10.50
2019-03-19T09:25:52.871Z,9.30
2019-03-19T09:26:52.861Z,12.70
2019-03-19T09:27:52.853Z,12.60
2019-03-19T09:28:52.899Z,11.60
2019-03-19T09:29:52.849Z,10.10
2019-03-19T09:30:52.842Z,13.50
2019-03-19T09:31:52.827Z,11.60
2019-03-19T09:32:52.821Z,12.20
2019-03-19T09:33:52.811Z,11.70
2019-03-19T09:34:52.806Z,13.40
2019-03-19T09:35:52.799Z,10.30
2019-03-19T09:36:57.330Z,12.20
2019-03-19T09:37:58.461Z,9.60
2019-03-19T09:38:52.764Z,8.80
2019-03-19T09:39:52.756Z,11.00
2019-03-19T09:40:52.748Z,9.80
2019-03-19T09:41:52.735Z,11.90
2019-03-19T09:42:52.723Z,9.50
2019-03-19T09:43:53.673Z,8.90
2019-03-19T09:44:58.512Z,10.70
2019-03-19T09:45:52.689Z,10.20
2019-03-19T09:46:52.684Z,12.00
2019-03-19T09:47:52.665Z,8.90
2019-03-19T09:48:52.663Z,10.70
2019-03-19T09:49:52.646Z,11.40
2019-03-19T09:50:52.630Z,13.50
2019-03-19T09:51:52.618Z,10.00
2019-03-19T09:52:52.610Z,9.70
2019-03-19T09:53:52.595Z,10.00
2019-03-19T09:54:52.582Z,11.70
2019-03-19T09:55:52.567Z,10.80
2019-03-19T09:56:52.557Z,10.40
2019-03-19T09:57:52.547Z,11.40
2019-03-19T09:58:52.528Z,9.80
2019-03-19T09:59:52.519Z,11.20
2019-03-19T10:00:52.501Z,10.50
2019-03-19T10:01:52.489Z,11.40
2019-03-19T10:02:52.477Z,14.10
2019-03-19T10:03:52.459Z,11.60
2019-03-19T10:04:52.460Z,12.80
2019-03-19T10:05:52.433Z,10.30
2019-03-19T10:06:52.416Z,10.20
2019-03-19T10:07:52.419Z,9.40
2019-03-19T10:08:52.396Z,8.70
2019-03-19T10:09:52.393Z,8.00
2019-03-19T10:10:52.630Z,9.40
2019-03-19T10:11:52.355Z,11.20
2019-03-19T10:12:52.350Z,10.30
2019-03-19T10:13:52.328Z,10.30
2019-03-19T10:14:52.317Z,9.20
2019-03-19T10:15:52.301Z,8.90
2019-03-19T10:16:52.308Z,9.00
2019-03-19T10:17:52.279Z,6.80
2019-03-19T10:18:52.259Z,10.70
2019-03-19T10:19:52.251Z,9.40
2019-03-19T10:20:52.235Z,8.60
2019-03-19T10:21:52.232Z,7.70
2019-03-19T10:22:52.206Z,8.90
2019-03-19T10:23:52.196Z,9.40
2019-03-19T10:24:52.183Z,8.20
2019-03-19T10:25:52.173Z,8.20
2019-03-19T10:26:52.157Z,6.20
2019-03-19T10:27:52.177Z,9.50
2019-03-19T10:28:52.143Z,8.50
2019-03-19T10:29:52.122Z,8.30
2019-03-19T10:30:52.109Z,7.80
2019-03-19T10:31:52.106Z,8.80
2019-03-19T10:32:52.086Z,8.00
2019-03-19T10:33:52.074Z,8.10
2019-03-19T10:34:52.061Z,8.40
2019-03-19T10:35:52.051Z,7.50
2019-03-19T10:36:52.042Z,6.50
2019-03-19T10:37:52.040Z,9.70
2019-03-19T10:38:52.027Z,7.90
2019-03-19T10:39:52.006Z,8.50
2019-03-19T10:40:52.003Z,7.90
2019-03-19T10:41:51.983Z,10.60
2019-03-19T10:42:51.978Z,8.10
2019-03-19T10:43:51.959Z,7.20
2019-03-19T10:44:51.956Z,11.20
2019-03-19T10:45:51.939Z,8.00
2019-03-19T10:46:51.927Z,9.50
2019-03-19T10:47:51.911Z,7.20
2019-03-19T10:48:51.924Z,6.50
2019-03-19T10:49:51.902Z,7.50
2019-03-19T10:50:51.875Z,8.70
2019-03-19T10:51:51.869Z,7.50
2019-03-19T10:52:51.864Z,9.00
2019-03-19T10:53:51.840Z,8.80
2019-03-19T10:54:51.834Z,6.80
2019-03-19T10:55:51.824Z,8.90
2019-03-19T10:56:51.810Z,7.10
2019-03-19T10:57:51.794Z,9.00
2019-03-19T10:58:51.773Z,8.60
2019-03-19T10:59:51.769Z,11.30
2019-03-19T11:00:51.763Z,7.90
2019-03-19T11:01:51.737Z,8.30
2019-03-19T11:02:51.725Z,8.90
2019-03-19T11:03:51.711Z,7.20
2019-03-19T11:04:51.701Z,6.80
2019-03-19T11:05:51.684Z,6.60
2019-03-19T11:06:51.682Z,8.20
2019-03-19T11:07:51.664Z,7.00
2019-03-19T11:08:51.652Z,8.70
2019-03-19T11:09:51.664Z,6.90
2019-03-19T11:10:51.624Z,7.50
2019-03-19T11:11:51.606Z,7.50
2019-03-19T11:12:51.592Z,9.00
2019-03-19T11:13:51.582Z,7.00
2019-03-19T11:14:51.566Z,6.80
2019-03-19T11:15:51.554Z,7.80
2019-03-19T11:16:51.539Z,10.30
2019-03-19T11:17:51.529Z,6.90
2019-03-19T11:18:51.515Z,7.80
2019-03-19T11:19:51.498Z,5.40
2019-03-19T11:20:51.497Z,6.20
2019-03-19T11:21:51.477Z,6.50
2019-03-19T11:22:51.470Z,8.50
2019-03-19T11:23:51.453Z,6.10
2019-03-19T11:24:51.431Z,6.60
2019-03-19T11:25:54.669Z,6.80
2019-03-19T11:26:51.411Z,7.10
2019-03-19T11:27:51.394Z,8.50
2019-03-19T11:28:51.381Z,6.50
2019-03-19T11:29:59.446Z,6.70
2019-03-19T11:30:51.352Z,6.50
2019-03-19T11:31:51.335Z,8.60
2019-03-19T11:32:51.319Z,10.50
2019-03-19T11:33:51.311Z,7.70
2019-03-19T11:34:51.293Z,5.90
2019-03-19T11:35:51.279Z,5.90
2019-03-19T11:36:57.770Z,7.00
2019-03-19T11:37:51.251Z,6.40
2019-03-19T11:38:51.238Z,10.00
2019-03-19T11:39:51.273Z,9.00
2019-03-19T11:40:51.210Z,10.00
2019-03-19T11:41:51.197Z,8.90
2019-03-19T11:42:51.188Z,7.20
2019-03-19T11:43:51.168Z,5.90
2019-03-19T11:44:51.156Z,6.00
2019-03-19T11:45:51.143Z,7.70
2019-03-19T11:46:53.496Z,8.20
2019-03-19T11:47:51.126Z,8.40
2019-03-19T11:48:51.105Z,5.30
2019-03-19T11:49:51.092Z,7.70
2019-03-19T11:50:51.081Z,8.00
2019-03-19T11:51:51.061Z,7.00
2019-03-19T11:52:51.047Z,10.00
2019-03-19T11:53:51.033Z,7.70
2019-03-19T11:54:51.031Z,8.80
2019-03-19T11:55:51.006Z,7.40
2019-03-19T11:56:50.993Z,9.10
2019-03-19T11:57:50.983Z,10.20
2019-03-19T11:58:50.967Z,8.20
2019-03-19T11:59:50.953Z,10.00
2019-03-19T12:00:50.948Z,8.10
2019-03-19T12:01:50.930Z,6.30
2019-03-19T12:02:50.914Z,6.40
2019-03-19T12:03:50.908Z,6.50
2019-03-19T12:04:50.895Z,8.60
2019-03-19T12:05:50.878Z,10.20
2019-03-19T12:06:50.867Z,7.00
2019-03-19T12:07:50.860Z,8.00
2019-03-19T12:08:50.845Z,8.70
2019-03-19T12:09:50.833Z,7.40
2019-03-19T12:10:50.812Z,6.00
2019-03-19T12:11:50.808Z,5.70
2019-03-19T12:12:50.786Z,8.30
2019-03-19T12:13:50.779Z,5.20
2019-03-19T12:14:50.796Z,6.30
2019-03-19T12:15:50.747Z,5.10
2019-03-19T12:16:50.732Z,5.50
2019-03-19T12:17:50.719Z,9.10
2019-03-19T12:18:50.707Z,11.50
2019-03-19T12:19:50.694Z,7.70
2019-03-19T12:20:50.690Z,8.00
2019-03-19T12:21:50.667Z,11.10
2019-03-19T12:22:50.655Z,6.60
2019-03-19T12:23:50.643Z,6.40
2019-03-19T12:24:50.628Z,7.40
2019-03-19T12:25:50.614Z,6.20
2019-03-19T12:26:50.658Z,6.00
2019-03-19T12:27:50.585Z,6.90
2019-03-19T12:28:50.571Z,8.50
2019-03-19T12:29:50.559Z,7.20
2019-03-19T12:30:50.544Z,7.40
2019-03-19T12:31:50.529Z,7.40
2019-03-19T12:32:50.518Z,7.00
2019-03-19T12:33:50.504Z,9.90
2019-03-19T12:34:50.487Z,9.20
2019-03-19T12:35:50.475Z,8.70
2019-03-19T12:36:50.461Z,6.40
2019-03-19T12:37:50.457Z,5.60
2019-03-19T12:38:50.433Z,10.40
2019-03-19T12:39:50.424Z,6.80
2019-03-19T12:40:50.413Z,7.60
2019-03-19T12:41:50.396Z,5.80
2019-03-19T12:42:50.381Z,7.70
2019-03-19T12:43:50.367Z,8.90
2019-03-19T12:44:50.354Z,9.50
2019-03-19T12:45:50.342Z,9.30
2019-03-19T12:46:50.332Z,9.00
2019-03-19T12:47:50.313Z,8.50
2019-03-19T12:48:50.308Z,8.30
2019-03-19T12:49:50.295Z,10.60
2019-03-19T12:50:50.285Z,8.50
2019-03-19T12:51:50.263Z,8.20
2019-03-19T12:52:50.249Z,7.50
2019-03-19T12:53:50.238Z,9.10
2019-03-19T12:54:50.227Z,5.30
2019-03-19T12:55:50.209Z,12.30
2019-03-19T12:56:50.195Z,9.60